Time;durP1;ratioP1;P1;durP2;ratioP2;P2;SDS_P1;SDS_P2;PMS_P1;PMS_P2;Temp;Humidity;BMP_temperature;BMP_pressure;BME280_temperature;BME280_humidity;BME280_pressure;Samples;Min_cycle;Max_cycle;Signal;HPM_P1;HPM_P2
2021/06/25 00:01:27;;;;;;;13.57;9.15;;;19.20;89.30;;;;;;4248717;27;20127;-72
2021/06/25 00:03:30;;;;;;;12.93;9.68;;;19.20;89.50;;;;;;4229360;27;20051;-73
2021/06/25 00:05:33;;;;;;;15.00;9.85;;;19.20;89.70;;;;;;4248566;27;20126;-72
2021/06/25 00:07:36;;;;;;;13.18;9.23;;;19.20;89.70;;;;;;4247865;27;20543;-73
2021/06/25 00:09:39;;;;;;;16.35;10.00;;;19.20;89.70;;;;;;4243812;27;20453;-72
2021/06/25 00:11:44;;;;;;;13.45;10.13;;;19.20;89.70;;;;;;4247434;27;20058;-73
2021/06/25 00:13:47;;;;;;;11.68;9.95;;;19.20;89.90;;;;;;4247064;27;20047;-71
2021/06/25 00:15:50;;;;;;;12.57;9.50;;;19.20;90.00;;;;;;4230129;28;20564;-74
2021/06/25 00:17:53;;;;;;;16.70;10.32;;;19.20;90.20;;;;;;4247582;27;20047;-72
2021/06/25 00:19:56;;;;;;;14.57;10.18;;;19.10;90.40;;;;;;4247401;27;20051;-71
2021/06/25 00:21:59;;;;;;;13.60;10.07;;;19.10;90.30;;;;;;4247040;27;20098;-71
2021/06/25 00:24:03;;;;;;;16.73;11.10;;;19.10;90.40;;;;;;4228471;28;20047;-70
2021/06/25 00:26:06;;;;;;;16.15;10.45;;;19.00;90.90;;;;;;4246717;27;20055;-71
2021/06/25 00:28:10;;;;;;;16.27;10.38;;;19.00;90.80;;;;;;4246678;27;20058;-71
2021/06/25 00:30:15;;;;;;;19.80;10.77;;;19.00;90.90;;;;;;4245507;27;20066;-80
2021/06/25 00:32:18;;;;;;;;;;;19.00;91.30;;;;;;4247361;27;20055;-77
2021/06/25 00:34:21;;;;;;;13.98;10.77;;;19.00;91.40;;;;;;4228272;28;19924;-80
2021/06/25 00:36:24;;;;;;;17.20;11.02;;;18.90;91.50;;;;;;4246503;27;20051;-80
2021/06/25 00:38:27;;;;;;;15.90;10.40;;;18.90;91.70;;;;;;4246619;27;20485;-81
2021/06/25 00:40:31;;;;;;;11.52;9.90;;;18.90;91.40;;;;;;4246298;27;20449;-71
2021/06/25 00:42:35;;;;;;;12.63;10.60;;;19.00;91.30;;;;;;4246540;27;20407;-76
2021/06/25 00:44:40;;;;;;;17.63;11.40;;;18.90;91.40;;;;;;4246550;27;20051;-75
2021/06/25 00:46:44;;;;;;;16.42;10.60;;;18.90;91.30;;;;;;4228408;28;20048;-79
2021/06/25 00:48:47;;;;;;;14.10;10.95;;;18.90;91.40;;;;;;4248483;27;20051;-71
2021/06/25 00:50:50;;;;;;;13.93;10.82;;;18.90;91.40;;;;;;4247813;27;20445;-73
2021/06/25 00:52:54;;;;;;;16.35;11.23;;;18.90;91.50;;;;;;4249936;27;20062;-76
2021/06/25 00:54:57;;;;;;;14.93;11.33;;;18.80;91.70;;;;;;4252211;27;20052;-76
2021/06/25 00:57:00;;;;;;;16.60;11.45;;;18.80;92.20;;;;;;4256079;27;20035;-72
2021/06/25 00:59:04;;;;;;;17.45;11.85;;;18.60;92.60;;;;;;4257285;27;20055;-74
2021/06/25 01:01:08;;;;;;;14.38;11.98;;;18.60;92.60;;;;;;4258287;27;20055;-75
2021/06/25 01:03:12;;;;;;;14.60;11.63;;;18.60;92.50;;;;;;4236072;28;20465;-75
2021/06/25 01:05:17;;;;;;;16.90;11.67;;;18.70;92.60;;;;;;4242455;27;20047;-77
2021/06/25 01:07:20;;;;;;;15.77;10.68;;;18.70;92.70;;;;;;4251417;27;20463;-74
2021/06/25 01:09:26;;;;;;;15.63;11.75;;;18.70;92.40;;;;;;4248964;27;20051;-76
2021/06/25 01:11:30;;;;;;;14.75;11.15;;;18.70;92.30;;;;;;4246986;27;20059;-75
2021/06/25 01:13:36;;;;;;;16.07;11.03;;;18.70;92.30;;;;;;4230213;28;20101;-72
2021/06/25 01:15:39;;;;;;;17.05;11.85;;;18.80;92.30;;;;;;4238278;27;20499;-74
2021/06/25 01:17:45;;;;;;;16.45;11.75;;;18.70;92.70;;;;;;4246954;27;20051;-77
2021/06/25 01:19:48;;;;;;;17.60;11.57;;;18.70;92.70;;;;;;4229144;27;20059;-74
2021/06/25 01:21:52;;;;;;;16.20;11.85;;;18.60;92.60;;;;;;4250223;27;20119;-79
2021/06/25 01:23:55;;;;;;;19.08;12.75;;;18.70;92.80;;;;;;4233324;28;20048;-79
2021/06/25 01:25:59;;;;;;;14.32;11.63;;;18.70;92.90;;;;;;4241085;27;20043;-74
2021/06/25 01:28:04;;;;;;;15.65;11.88;;;18.60;92.60;;;;;;4250417;27;20062;-77
2021/06/25 01:30:10;;;;;;;18.40;12.88;;;18.60;92.90;;;;;;4249833;27;20055;-80
2021/06/25 01:32:13;;;;;;;16.30;12.27;;;18.60;93.20;;;;;;4232693;28;20081;-78
2021/06/25 01:34:16;;;;;;;17.17;12.10;;;18.60;93.00;;;;;;4252558;27;20051;-75
2021/06/25 01:36:20;;;;;;;21.73;12.27;;;18.60;92.90;;;;;;4252072;27;20047;-71
2021/06/25 01:38:25;;;;;;;14.15;11.95;;;18.50;93.00;;;;;;4250895;27;20055;-77
2021/06/25 01:40:28;;;;;;;15.00;11.10;;;18.50;93.10;;;;;;4249887;27;20637;-74
2021/06/25 01:42:34;;;;;;;15.90;12.27;;;18.50;93.00;;;;;;4249776;27;20044;-73
2021/06/25 01:44:38;;;;;;;15.07;11.73;;;18.50;93.00;;;;;;4233769;28;20052;-77
2021/06/25 01:46:42;;;;;;;18.42;12.77;;;18.50;93.10;;;;;;4242941;27;20051;-72
2021/06/25 01:48:46;;;;;;;18.02;12.32;;;18.60;93.20;;;;;;4247109;27;20104;-76
2021/06/25 01:50:49;;;;;;;13.50;11.20;;;18.50;93.10;;;;;;4234764;28;20059;-78
2021/06/25 01:52:54;;;;;;;13.65;12.05;;;18.60;93.10;;;;;;4250664;27;20130;-75
2021/06/25 01:54:59;;;;;;;15.88;12.20;;;18.50;93.10;;;;;;4234400;28;20059;-77
2021/06/25 01:57:02;;;;;;;15.48;12.75;;;18.40;93.60;;;;;;4242566;27;20051;-75
2021/06/25 01:59:05;;;;;;;16.30;13.15;;;18.50;93.40;;;;;;4233966;28;20458;-76
2021/06/25 02:01:10;;;;;;;18.90;12.48;;;18.30;93.80;;;;;;4251922;27;20056;-75
2021/06/25 02:03:13;;;;;;;;;;;18.20;93.90;;;;;;4235814;27;20055;-78
2021/06/25 02:05:16;;;;;;;15.43;13.07;;;18.30;93.80;;;;;;4236669;28;19920;-76
2021/06/25 02:07:19;;;;;;;16.75;13.52;;;18.30;94.10;;;;;;4243435;27;20055;-73
2021/06/25 02:09:23;;;;;;;17.42;12.15;;;18.30;93.90;;;;;;4238594;27;20059;-76
2021/06/25 02:11:27;;;;;;;15.05;12.20;;;18.30;93.90;;;;;;4238712;28;20066;-75
2021/06/25 02:13:30;;;;;;;16.23;13.50;;;18.30;93.80;;;;;;4256613;27;20054;-76
2021/06/25 02:15:34;;;;;;;14.90;12.93;;;18.30;93.80;;;;;;4236214;28;20051;-78
2021/06/25 02:17:37;;;;;;;15.77;12.50;;;18.30;93.90;;;;;;4254217;27;20051;-74
2021/06/25 02:19:40;;;;;;;16.83;13.73;;;18.20;93.90;;;;;;4257363;27;20104;-78
2021/06/25 02:21:43;;;;;;;19.30;12.93;;;18.20;94.10;;;;;;4256921;27;20055;-76
2021/06/25 02:23:47;;;;;;;18.25;12.77;;;18.20;94.10;;;;;;4256700;27;20063;-75
2021/06/25 02:25:50;;;;;;;17.98;13.52;;;18.20;94.00;;;;;;4255563;27;20051;-74
2021/06/25 02:27:55;;;;;;;17.02;13.13;;;18.10;94.40;;;;;;4259812;27;20047;-74
2021/06/25 02:29:58;;;;;;;17.60;13.38;;;18.10;94.30;;;;;;4261016;27;20043;-72
2021/06/25 02:32:01;;;;;;;16.58;13.43;;;18.10;94.60;;;;;;4258664;27;20047;-78
2021/06/25 02:34:04;;;;;;;16.73;13.25;;;18.10;94.60;;;;;;4258858;27;20053;-71
2021/06/25 02:36:07;;;;;;;18.33;13.90;;;17.90;94.70;;;;;;4257542;27;20108;-75
2021/06/25 02:38:11;;;;;;;17.35;13.52;;;17.90;95.00;;;;;;4253044;27;20131;-76
2021/06/25 02:40:15;;;;;;;17.63;13.80;;;17.90;94.90;;;;;;4252881;27;20070;-78
2021/06/25 02:42:18;;;;;;;18.35;14.15;;;18.00;94.80;;;;;;4251777;27;20514;-76
2021/06/25 02:44:22;;;;;;;18.45;13.10;;;18.00;94.70;;;;;;4250666;27;20085;-78
2021/06/25 02:46:25;;;;;;;18.88;14.68;;;18.00;94.70;;;;;;4251269;27;20062;-74
2021/06/25 02:48:29;;;;;;;19.08;13.27;;;18.00;95.10;;;;;;4249228;27;20054;-75
2021/06/25 02:50:32;;;;;;;23.60;14.45;;;18.00;94.90;;;;;;4251426;27;20047;-79
2021/06/25 02:52:39;;;;;;;18.00;14.07;;;18.00;95.00;;;;;;4251843;27;20047;-78
2021/06/25 02:54:43;;;;;;;17.30;13.18;;;18.00;94.90;;;;;;4251804;27;20082;-79
2021/06/25 02:56:46;;;;;;;19.35;14.48;;;18.00;94.90;;;;;;4250954;27;20078;-79
2021/06/25 02:58:49;;;;;;;16.92;14.30;;;18.00;95.10;;;;;;4250918;27;20082;-78
2021/06/25 03:00:54;;;;;;;20.63;13.52;;;17.90;95.10;;;;;;4250338;27;20054;-75
2021/06/25 03:02:57;;;;;;;20.95;14.98;;;17.90;95.00;;;;;;4250352;27;20398;-76
2021/06/25 03:05:00;;;;;;;19.50;15.07;;;17.90;95.30;;;;;;4249237;27;20054;-74
2021/06/25 03:07:04;;;;;;;28.95;16.13;;;17.70;96.00;;;;;;4249310;27;20062;-76
2021/06/25 03:09:09;;;;;;;19.60;15.55;;;17.70;96.00;;;;;;4248485;27;20051;-77
2021/06/25 03:11:12;;;;;;;24.35;14.73;;;17.60;96.00;;;;;;4249168;27;20104;-79
2021/06/25 03:13:16;;;;;;;25.30;15.98;;;17.70;95.80;;;;;;4249235;27;20062;-75
2021/06/25 03:15:21;;;;;;;24.73;15.52;;;17.80;95.70;;;;;;4249233;27;20059;-79
2021/06/25 03:17:26;;;;;;;23.63;16.13;;;17.80;95.90;;;;;;4231693;27;20474;-72
2021/06/25 03:19:29;;;;;;;26.17;15.30;;;17.80;95.80;;;;;;4249997;27;20058;-75
2021/06/25 03:21:32;;;;;;;19.83;14.73;;;17.80;95.80;;;;;;4250286;27;20485;-75
2021/06/25 03:23:35;;;;;;;21.20;16.15;;;17.80;95.80;;;;;;4251086;27;20108;-78
2021/06/25 03:25:38;;;;;;;22.80;16.17;;;17.70;96.20;;;;;;4254173;27;20059;-80
2021/06/25 03:27:41;;;;;;;21.15;14.90;;;17.60;96.70;;;;;;4253965;27;20077;-74
2021/06/25 03:29:44;;;;;;;22.85;16.02;;;17.60;96.50;;;;;;4253284;27;20064;-76
2021/06/25 03:31:47;;;;;;;23.02;16.05;;;17.60;96.40;;;;;;4251378;27;20104;-77
2021/06/25 03:33:52;;;;;;;21.90;16.58;;;17.70;96.40;;;;;;4250247;27;20069;-78
2021/06/25 03:35:56;;;;;;;21.88;15.38;;;17.70;96.40;;;;;;4249853;27;20043;-76
2021/06/25 03:37:59;;;;;;;20.33;15.15;;;17.70;96.50;;;;;;4249555;27;20111;-75
2021/06/25 03:40:07;;;;;;;18.83;14.95;;;17.70;96.20;;;;;;4249717;27;20047;-75
2021/06/25 03:42:10;;;;;;;22.05;15.82;;;17.80;96.20;;;;;;4232656;28;20085;-75
2021/06/25 03:44:13;;;;;;;19.05;15.45;;;17.80;96.40;;;;;;4231107;28;20057;-73
2021/06/25 03:46:19;;;;;;;20.90;14.85;;;17.80;96.80;;;;;;4245441;27;20039;-73
2021/06/25 03:48:23;;;;;;;20.65;15.30;;;17.90;96.40;;;;;;4248211;27;20470;-77
2021/06/25 03:50:27;;;;;;;24.95;15.63;;;17.90;96.40;;;;;;4249308;27;20054;-79
2021/06/25 03:52:30;;;;;;;;;;;17.90;96.60;;;;;;4232973;28;20059;-76
2021/06/25 03:54:33;;;;;;;22.60;16.15;;;17.90;96.80;;;;;;4231877;28;19923;-75
2021/06/25 03:56:36;;;;;;;22.45;15.75;;;17.90;97.10;;;;;;4244934;27;20078;-78
2021/06/25 03:58:41;;;;;;;24.60;15.20;;;18.00;96.80;;;;;;4249560;27;20051;-80
2021/06/25 04:00:48;;;;;;;29.70;14.60;;;18.00;96.60;;;;;;4248824;27;20514;-71
2021/06/25 04:02:51;;;;;;;21.42;14.98;;;18.00;96.70;;;;;;4231999;28;20059;-74
2021/06/25 04:04:54;;;;;;;30.35;17.60;;;18.00;96.70;;;;;;4231278;28;20059;-75
2021/06/25 04:06:58;;;;;;;21.73;15.88;;;18.00;96.90;;;;;;4226261;28;20058;-75
2021/06/25 04:09:03;;;;;;;27.13;16.23;;;18.00;97.00;;;;;;4247919;27;20073;-73
2021/06/25 04:11:06;;;;;;;20.08;15.38;;;18.10;97.00;;;;;;4247786;27;20479;-75
2021/06/25 04:13:09;;;;;;;31.23;15.85;;;18.20;96.90;;;;;;4247429;27;20063;-77
2021/06/25 04:15:13;;;;;;;24.77;16.50;;;18.20;96.80;;;;;;4247452;27;20057;-79
2021/06/25 04:17:16;;;;;;;30.10;17.40;;;18.20;96.90;;;;;;4248022;27;20074;-73
2021/06/25 04:19:19;;;;;;;29.75;16.67;;;18.20;97.00;;;;;;4248774;27;20051;-76
2021/06/25 04:21:23;;;;;;;23.63;16.30;;;18.20;96.90;;;;;;4247280;27;20411;-79
2021/06/25 04:23:27;;;;;;;31.73;17.00;;;18.10;97.10;;;;;;4247712;27;20418;-75
2021/06/25 04:25:30;;;;;;;31.02;17.38;;;18.20;96.90;;;;;;4248686;27;20460;-75
2021/06/25 04:27:33;;;;;;;35.50;17.58;;;18.20;96.70;;;;;;4230535;28;20447;-77
2021/06/25 04:29:37;;;;;;;26.08;16.60;;;18.10;96.90;;;;;;4248527;27;20055;-73
2021/06/25 04:31:42;;;;;;;23.52;15.70;;;18.10;96.90;;;;;;4235805;27;20047;-74
2021/06/25 04:33:45;;;;;;;32.53;16.45;;;18.20;96.80;;;;;;4254315;27;20556;-76
2021/06/25 04:35:50;;;;;;;28.25;16.33;;;18.30;96.70;;;;;;4258687;27;20129;-78
2021/06/25 04:37:53;;;;;;;29.38;17.73;;;18.40;96.60;;;;;;4257389;27;20100;-77
2021/06/25 04:39:57;;;;;;;39.30;18.60;;;18.40;96.50;;;;;;4258904;27;20076;-75
2021/06/25 04:42:01;;;;;;;33.70;18.38;;;18.40;96.60;;;;;;4262827;27;20111;-74
2021/06/25 04:44:05;;;;;;;31.77;17.73;;;18.40;96.70;;;;;;4262870;27;20046;-75
2021/06/25 04:46:08;;;;;;;35.00;18.55;;;18.40;96.60;;;;;;4241295;28;20176;-75
2021/06/25 04:48:13;;;;;;;35.70;16.80;;;18.40;96.80;;;;;;4261255;27;20051;-75
2021/06/25 04:50:16;;;;;;;36.28;17.05;;;18.40;97.00;;;;;;4248227;27;20051;-76
2021/06/25 04:52:19;;;;;;;36.80;17.30;;;18.50;96.70;;;;;;4240969;27;20051;-77
2021/06/25 04:54:22;;;;;;;27.88;17.45;;;18.50;96.60;;;;;;4246595;27;20048;-80
2021/06/25 04:56:26;;;;;;;31.08;16.92;;;18.50;96.80;;;;;;4246443;27;20051;-73
2021/06/25 04:58:29;;;;;;;30.92;17.35;;;18.60;96.60;;;;;;4247565;27;20047;-74
2021/06/25 05:00:32;;;;;;;34.88;16.90;;;18.60;96.60;;;;;;4249500;27;20092;-78
2021/06/25 05:02:36;;;;;;;35.03;17.30;;;18.70;96.50;;;;;;4251550;27;20061;-77
2021/06/25 05:04:39;;;;;;;37.75;16.67;;;18.80;96.60;;;;;;4250783;27;20050;-77
2021/06/25 05:06:42;;;;;;;50.60;18.27;;;18.80;96.50;;;;;;4252946;27;20054;-78
2021/06/25 05:08:45;;;;;;;36.90;17.55;;;18.60;96.30;;;;;;4251762;27;20054;-74
2021/06/25 05:10:48;;;;;;;49.65;17.92;;;18.70;96.50;;;;;;4253601;27;20054;-74
2021/06/25 05:12:53;;;;;;;44.22;17.63;;;18.70;96.20;;;;;;4251393;27;20059;-77
2021/06/25 05:14:56;;;;;;;38.42;18.08;;;18.70;95.80;;;;;;4250105;27;20047;-78
2021/06/25 05:16:59;;;;;;;55.72;18.73;;;18.80;95.80;;;;;;4248214;27;20130;-79
2021/06/25 05:19:02;;;;;;;35.90;16.90;;;18.80;96.10;;;;;;4247545;27;20487;-71
2021/06/25 05:21:05;;;;;;;38.22;17.40;;;18.90;96.20;;;;;;4247440;27;20426;-77
2021/06/25 05:23:09;;;;;;;45.75;18.25;;;18.90;95.90;;;;;;4246552;27;20055;-74
2021/06/25 05:25:13;;;;;;;44.67;17.70;;;18.90;95.80;;;;;;4246577;28;20055;-79
2021/06/25 05:27:16;;;;;;;39.40;16.83;;;18.90;95.90;;;;;;4246083;27;20499;-77
2021/06/25 05:29:20;;;;;;;46.97;17.35;;;19.00;96.00;;;;;;4246040;27;20074;-77
2021/06/25 05:31:23;;;;;;;36.28;16.50;;;19.10;95.90;;;;;;4246033;27;20706;-79
2021/06/25 05:33:27;;;;;;;39.53;16.90;;;19.10;95.90;;;;;;4245989;27;20051;-77
2021/06/25 05:35:31;;;;;;;36.42;16.42;;;19.10;96.00;;;;;;4242064;27;20048;-76
2021/06/25 05:37:34;;;;;;;25.27;15.13;;;19.20;96.10;;;;;;4246135;27;20059;-78
2021/06/25 05:39:37;;;;;;;24.30;15.82;;;19.20;95.90;;;;;;4245451;27;20043;-77
2021/06/25 05:41:40;;;;;;;36.53;17.27;;;19.20;95.90;;;;;;4246002;27;20055;-72
2021/06/25 05:43:43;;;;;;;28.15;15.82;;;19.30;96.00;;;;;;4245646;27;20464;-74
2021/06/25 05:45:48;;;;;;;30.70;16.38;;;19.40;96.20;;;;;;4245360;27;20055;-76
2021/06/25 05:47:51;;;;;;;34.28;16.40;;;19.40;96.30;;;;;;4246636;27;20608;-76
2021/06/25 05:49:54;;;;;;;32.05;15.45;;;19.40;95.90;;;;;;4245354;27;20137;-72
2021/06/25 05:51:57;;;;;;;22.20;15.25;;;19.40;95.50;;;;;;4227873;28;20507;-78
2021/06/25 05:54:00;;;;;;;24.63;15.82;;;19.40;94.40;;;;;;4250736;27;20050;-73
2021/06/25 05:56:04;;;;;;;20.85;13.85;;;19.30;94.10;;;;;;4249338;27;20058;-76
2021/06/25 05:58:08;;;;;;;27.65;15.18;;;19.30;93.50;;;;;;4250910;27;20055;-78
2021/06/25 06:00:12;;;;;;;25.52;15.65;;;19.30;93.50;;;;;;4247644;27;20126;-77
2021/06/25 06:02:17;;;;;;;22.25;15.18;;;19.20;93.60;;;;;;4245992;27;20051;-77
2021/06/25 06:04:20;;;;;;;19.27;13.85;;;19.20;93.90;;;;;;4245922;27;20632;-77
2021/06/25 06:06:23;;;;;;;24.80;14.95;;;19.30;94.10;;;;;;4245814;27;20054;-73
2021/06/25 06:08:26;;;;;;;23.85;15.30;;;19.40;93.70;;;;;;4249217;27;20384;-74
2021/06/25 06:10:29;;;;;;;21.58;14.88;;;19.30;93.30;;;;;;4248853;27;20075;-72
2021/06/25 06:12:33;;;;;;;25.27;14.30;;;19.20;93.40;;;;;;4248950;27;20053;-73
2021/06/25 06:14:36;;;;;;;24.25;14.88;;;19.20;93.30;;;;;;4249077;27;20069;-74
2021/06/25 06:16:39;;;;;;;21.77;13.10;;;19.20;92.80;;;;;;4248794;27;20043;-79
2021/06/25 06:18:46;;;;;;;22.30;14.18;;;19.20;92.90;;;;;;4247883;27;20062;-79
2021/06/25 06:20:50;;;;;;;22.98;14.00;;;19.30;92.90;;;;;;4248141;27;20062;-75
2021/06/25 06:32:26;;;;;;;22.25;13.20;;;19.10;91.20;;;;;;4247933;27;20056;-75
2021/06/25 06:34:34;;;;;;;20.80;13.27;;;19.40;91.90;;;;;;4248377;27;20100;-78
2021/06/25 06:36:45;;;;;;;21.60;13.02;;;19.40;91.50;;;;;;4248231;27;20056;-77
2021/06/25 06:38:49;;;;;;;22.05;13.23;;;19.50;92.10;;;;;;4230340;28;20047;-74
2021/06/25 06:40:52;;;;;;;19.05;13.07;;;19.50;91.80;;;;;;4247966;27;20051;-79
2021/06/25 06:42:55;;;;;;;20.45;13.10;;;19.50;91.20;;;;;;4248240;27;20096;-76
2021/06/25 06:44:59;;;;;;;17.93;12.97;;;19.50;91.60;;;;;;4248230;27;20055;-75
2021/06/25 06:47:02;;;;;;;22.05;12.60;;;19.40;91.40;;;;;;4248232;27;20455;-72
2021/06/25 06:49:06;;;;;;;20.67;12.05;;;19.50;91.60;;;;;;4245639;27;20051;-77
2021/06/25 06:51:11;;;;;;;19.88;12.90;;;19.60;91.70;;;;;;4229678;28;20048;-74
2021/06/25 06:53:14;;;;;;;22.58;12.10;;;19.70;91.10;;;;;;4247943;27;20522;-74
2021/06/25 06:55:20;;;;;;;18.95;12.38;;;19.80;91.50;;;;;;4247927;27;20059;-77
2021/06/25 06:57:23;;;;;;;20.33;12.82;;;19.90;91.10;;;;;;4247856;27;20113;-76
2021/06/25 06:59:26;;;;;;;18.17;12.35;;;20.00;90.70;;;;;;4250546;27;20051;-75
2021/06/25 07:01:31;;;;;;;24.48;12.60;;;20.00;89.30;;;;;;4230460;28;20055;-74
2021/06/25 07:03:54;;;;;;;18.02;11.90;;;20.00;90.10;;;;;;4238733;27;20457;-74
2021/06/25 07:05:57;;;;;;;18.73;11.07;;;20.10;88.60;;;;;;4253491;27;20059;-74
2021/06/25 07:08:01;;;;;;;21.20;11.57;;;20.10;89.60;;;;;;4254484;27;20043;-77
2021/06/25 07:10:06;;;;;;;24.08;12.68;;;20.30;88.80;;;;;;4236305;28;20060;-73
2021/06/25 07:12:10;;;;;;;19.73;11.70;;;20.30;88.90;;;;;;4253910;27;20480;-75
2021/06/25 07:14:13;;;;;;;18.52;12.75;;;20.50;89.40;;;;;;4251890;27;20051;-74
2021/06/25 07:16:16;;;;;;;19.38;11.30;;;20.40;87.80;;;;;;4250642;27;20047;-74
2021/06/25 07:18:19;;;;;;;17.23;11.90;;;20.50;87.40;;;;;;4229957;27;20055;-75
2021/06/25 07:20:22;;;;;;;20.23;11.40;;;20.40;88.10;;;;;;4247692;27;20059;-74
2021/06/25 07:22:25;;;;;;;16.35;11.40;;;20.50;86.70;;;;;;4247794;27;20047;-79
2021/06/25 07:24:31;;;;;;;23.75;11.55;;;20.60;86.00;;;;;;4247714;27;20051;-78
2021/06/25 07:26:34;;;;;;;23.20;11.10;;;20.60;85.90;;;;;;4248467;27;20112;-77
2021/06/25 07:28:37;;;;;;;13.48;10.60;;;20.70;86.90;;;;;;4248570;27;20055;-76
2021/06/25 07:30:40;;;;;;;16.33;11.05;;;20.70;86.20;;;;;;4248598;27;20054;-79
2021/06/25 07:32:43;;;;;;;29.30;11.43;;;20.80;85.40;;;;;;4248067;27;20047;-77
2021/06/25 07:34:46;;;;;;;22.67;11.10;;;20.90;85.30;;;;;;4248535;27;20066;-74
2021/06/25 07:36:49;;;;;;;20.05;10.38;;;21.00;85.60;;;;;;4248743;27;20062;-73
2021/06/25 07:38:52;;;;;;;18.17;11.15;;;21.20;85.50;;;;;;4248487;27;20073;-73
2021/06/25 07:40:57;;;;;;;24.27;11.25;;;21.10;84.30;;;;;;4248279;27;20050;-76
2021/06/25 07:43:00;;;;;;;18.00;10.65;;;21.10;83.00;;;;;;4229150;28;20044;-72
2021/06/25 07:45:08;;;;;;;21.13;10.68;;;21.10;83.80;;;;;;4248017;27;20047;-77
2021/06/25 07:47:11;;;;;;;14.73;10.52;;;21.20;82.70;;;;;;4248131;27;20043;-77
2021/06/25 07:49:14;;;;;;;22.00;10.80;;;21.20;82.90;;;;;;4248100;27;20092;-73
2021/06/25 07:51:19;;;;;;;18.38;9.98;;;21.20;83.40;;;;;;4249074;27;20509;-76
2021/06/25 07:53:23;;;;;;;21.50;10.05;;;21.40;84.10;;;;;;4248105;27;20050;-77
2021/06/25 07:55:26;;;;;;;21.95;10.45;;;21.40;83.10;;;;;;4247906;27;20043;-72
2021/06/25 07:57:30;;;;;;;17.48;10.30;;;21.40;82.90;;;;;;4247917;27;20491;-76
2021/06/25 07:59:33;;;;;;;18.52;10.32;;;21.40;83.00;;;;;;4248346;27;20499;-76
2021/06/25 08:01:36;;;;;;;24.40;10.82;;;21.50;82.40;;;;;;4249024;27;20096;-76
2021/06/25 08:03:41;;;;;;;16.10;10.00;;;21.50;81.70;;;;;;4248157;27;20051;-75
2021/06/25 08:05:44;;;;;;;15.25;9.57;;;21.80;80.30;;;;;;4248440;27;20054;-73
2021/06/25 08:07:47;;;;;;;20.30;10.02;;;22.00;81.80;;;;;;4248374;27;20058;-75
2021/06/25 08:09:50;;;;;;;22.55;10.25;;;22.10;80.50;;;;;;4247322;27;20042;-74
2021/06/25 08:11:53;;;;;;;17.52;10.18;;;21.80;79.20;;;;;;4247287;27;20058;-77
2021/06/25 08:13:58;;;;;;;20.77;10.25;;;21.70;79.90;;;;;;4247595;27;20059;-78
2021/06/25 08:16:01;;;;;;;19.42;9.57;;;21.70;81.00;;;;;;4247785;27;20091;-74
2021/06/25 08:18:05;;;;;;;17.73;10.25;;;21.80;80.60;;;;;;4249345;27;20051;-78
2021/06/25 08:20:09;;;;;;;14.30;9.82;;;21.80;80.40;;;;;;4252945;27;20051;-77
2021/06/25 08:22:12;;;;;;;15.23;10.55;;;21.90;80.60;;;;;;4252832;27;20043;-78
2021/06/25 08:24:16;;;;;;;17.08;10.52;;;21.90;80.50;;;;;;4233201;28;20051;-76
2021/06/25 08:26:19;;;;;;;19.58;11.23;;;21.80;78.70;;;;;;4247555;27;20491;-76
2021/06/25 08:28:22;;;;;;;15.88;9.93;;;21.70;79.90;;;;;;4247562;27;20116;-79
2021/06/25 08:30:27;;;;;;;20.77;10.25;;;21.90;80.90;;;;;;4246770;27;20495;-70
2021/06/25 08:32:30;;;;;;;;;;;22.00;79.20;;;;;;4247314;27;20051;-72
2021/06/25 08:34:33;;;;;;;18.58;10.35;;;22.00;79.20;;;;;;4247215;27;19927;-74
2021/06/25 08:36:37;;;;;;;14.18;9.90;;;22.20;77.80;;;;;;4246774;27;20100;-75
2021/06/25 08:38:40;;;;;;;16.50;11.05;;;22.20;75.60;;;;;;4247197;27;20084;-74
2021/06/25 08:40:44;;;;;;;15.57;10.55;;;22.30;75.40;;;;;;4246361;27;20405;-76
2021/06/25 08:42:48;;;;;;;13.60;10.55;;;22.30;77.00;;;;;;4246819;27;20298;-74
2021/06/25 08:44:51;;;;;;;14.15;9.80;;;22.30;76.10;;;;;;4246933;27;20411;-78
2021/06/25 08:46:55;;;;;;;18.40;10.32;;;22.30;75.40;;;;;;4242135;27;20055;-77
2021/06/25 08:49:03;;;;;;;16.55;10.55;;;22.40;76.90;;;;;;4246917;27;20449;-74
2021/06/25 08:51:07;;;;;;;14.75;10.20;;;22.40;77.30;;;;;;4246740;27;20047;-73
2021/06/25 08:53:12;;;;;;;20.95;9.77;;;22.50;77.50;;;;;;4246303;27;20046;-72
2021/06/25 08:55:16;;;;;;;15.55;10.45;;;22.50;76.60;;;;;;4246396;27;20745;-74
2021/06/25 08:57:19;;;;;;;16.92;9.98;;;22.60;75.90;;;;;;4246247;27;20065;-73
2021/06/25 08:59:22;;;;;;;16.20;9.55;;;22.30;75.50;;;;;;4246441;27;20059;-73
2021/06/25 09:01:26;;;;;;;19.17;9.20;;;22.20;76.20;;;;;;4246076;27;20051;-74
2021/06/25 09:03:33;;;;;;;19.08;9.77;;;22.20;76.90;;;;;;4246067;27;20055;-71
2021/06/25 09:05:36;;;;;;;14.93;9.27;;;22.30;75.80;;;;;;4240819;27;20236;-74
2021/06/25 09:07:41;;;;;;;15.93;8.65;;;22.30;76.80;;;;;;4246256;27;20062;-75
2021/06/25 09:09:48;;;;;;;20.83;9.43;;;22.30;77.70;;;;;;4244315;28;20043;-73
2021/06/25 09:12:05;;;;;;;;;;;22.40;77.60;;;;;;4241072;27;20548;-74
2021/06/25 09:14:08;;;;;;;13.63;8.63;;;22.60;77.70;;;;;;4246024;27;19923;-73
2021/06/25 09:16:23;;;;;;;14.77;8.73;;;22.90;78.60;;;;;;4246139;27;20051;-72
2021/06/25 09:18:26;;;;;;;13.45;8.35;;;22.80;75.70;;;;;;4239258;28;20058;-74
2021/06/25 09:20:37;;;;;;;15.38;8.77;;;22.70;76.30;;;;;;4241649;28;20166;-71
2021/06/25 09:22:50;;;;;;;11.48;9.23;;;22.60;76.10;;;;;;4244824;27;20063;-71
2021/06/25 09:25:04;;;;;;;15.52;9.00;;;22.60;77.30;;;;;;4233655;28;20035;-72
2021/06/25 09:27:09;;;;;;;14.20;8.55;;;22.80;79.00;;;;;;4242152;27;20491;-75
2021/06/25 09:29:16;;;;;;;11.73;9.18;;;22.80;76.80;;;;;;4250913;27;20051;-72
2021/06/25 09:31:22;;;;;;;16.33;9.38;;;22.90;76.40;;;;;;4239857;28;20069;-71
2021/06/25 09:33:26;;;;;;;15.02;8.85;;;23.00;77.50;;;;;;4252760;27;20050;-71
2021/06/25 09:35:32;;;;;;;12.50;8.32;;;23.10;76.90;;;;;;4253901;28;20081;-71
2021/06/25 09:37:43;;;;;;;14.68;8.50;;;23.20;76.20;;;;;;4240263;28;20084;-72
2021/06/25 09:39:58;;;;;;;9.85;7.72;;;23.20;76.40;;;;;;4240909;28;20047;-71
2021/06/25 09:42:01;;;;;;;10.90;7.85;;;23.50;75.70;;;;;;4239096;27;20050;-71
2021/06/25 09:44:08;;;;;;;12.38;7.45;;;23.60;76.60;;;;;;4256699;27;20047;-73
2021/06/25 09:46:12;;;;;;;8.48;6.50;;;23.80;76.30;;;;;;4253308;27;20084;-73
2021/06/25 09:48:16;;;;;;;17.50;6.97;;;23.90;76.40;;;;;;4252895;27;20067;-72
2021/06/25 09:50:21;;;;;;;7.10;5.97;;;24.20;75.70;;;;;;4244388;27;20086;-72
2021/06/25 09:52:42;;;;;;;9.55;6.95;;;24.30;75.20;;;;;;4250536;27;20043;-74
2021/06/25 09:54:46;;;;;;;13.43;7.05;;;24.10;74.10;;;;;;4241008;27;20070;-73
2021/06/25 09:57:06;;;;;;;12.82;6.72;;;23.90;73.20;;;;;;4252501;27;20096;-74
2021/06/25 09:59:34;;;;;;;10.52;7.00;;;23.80;73.90;;;;;;4251427;27;20503;-73
2021/06/25 10:01:46;;;;;;;9.38;6.60;;;23.80;76.40;;;;;;4251003;27;20508;-73
2021/06/25 10:03:51;;;;;;;8.70;7.00;;;24.00;76.50;;;;;;4251916;27;20048;-79
2021/06/25 10:06:19;;;;;;;9.88;6.47;;;24.20;78.20;;;;;;4251221;27;20047;-75
2021/06/25 10:08:38;;;;;;;6.20;5.57;;;24.50;76.80;;;;;;4247789;27;20039;-74
2021/06/25 10:10:43;;;;;;;6.18;4.72;;;24.50;74.70;;;;;;4248984;27;20126;-77
2021/06/25 10:12:46;;;;;;;13.73;5.60;;;24.50;74.20;;;;;;4249315;27;20051;-76
2021/06/25 10:14:52;;;;;;;7.32;5.93;;;24.50;74.70;;;;;;4249294;27;20603;-72
2021/06/25 10:16:55;;;;;;;11.00;5.45;;;24.50;73.70;;;;;;4249352;27;20062;-73
2021/06/25 10:18:59;;;;;;;9.50;5.20;;;24.50;74.10;;;;;;4248686;27;20076;-72
2021/06/25 10:21:07;;;;;;;9.18;5.70;;;24.50;75.40;;;;;;4248806;27;20415;-71
2021/06/25 10:23:13;;;;;;;8.25;5.43;;;24.70;75.00;;;;;;4248927;27;20051;-72
2021/06/25 10:25:16;;;;;;;10.95;5.03;;;24.40;73.30;;;;;;4250012;27;20079;-75
2021/06/25 10:27:22;;;;;;;6.93;4.80;;;24.20;74.30;;;;;;4250075;27;20051;-72
2021/06/25 10:29:25;;;;;;;6.57;4.63;;;24.10;75.30;;;;;;4249733;27;20050;-72
2021/06/25 10:31:28;;;;;;;5.28;4.10;;;24.30;74.70;;;;;;4255320;27;20059;-71
2021/06/25 10:33:32;;;;;;;5.40;3.70;;;24.50;75.80;;;;;;4254839;27;20047;-71
2021/06/25 10:35:35;;;;;;;6.38;4.03;;;24.60;74.80;;;;;;4254307;27;20039;-71
2021/06/25 10:37:40;;;;;;;5.80;3.45;;;24.70;76.20;;;;;;4257113;27;20063;-71
2021/06/25 10:39:43;;;;;;;6.38;3.58;;;24.70;74.70;;;;;;4255166;27;20053;-72
2021/06/25 10:41:48;;;;;;;10.77;3.72;;;24.60;75.90;;;;;;4251899;27;20055;-71
2021/06/25 10:43:54;;;;;;;4.72;3.63;;;24.30;73.00;;;;;;4251718;27;20447;-72